Overview Statistics Trail Chart Weather Telemetry Raw packets
 

This is the latest recevied weather packets stored in our database for station/object STV2-WX. If no packets are shown the sender has not sent any weather packets the latest 10 day(s).

<< 5 6 7 8 9 10 >>
Time Temp. Humidity Pressure Rain* Wind** Luminosity Snow
1788063428 15° C 43% 1016.9 hPa - - - -
1788059834 14.44° C 46% 1017.3 hPa - - - -
1788056229 15° C 52% 1017.1 hPa - - - -
1788052630 15.56° C 57% 1017.2 hPa - - - -
1788049029 15.56° C 59% 1016.9 hPa - - - -
1788045437 16.11° C 61% 1016.6 hPa - - - -
1788041828 17.22° C 57% 1016.4 hPa - - - -
1788038229 17.78° C 54% 1016.8 hPa - - - -
1788034628 17.78° C 53% 1016.9 hPa - - - -
1788031029 18.33° C 56% 1017.2 hPa - - - -
1788027430 18.33° C 65% 1017.3 hPa - - - -
1788023830 18.33° C 70% 1016.6 hPa - - - -
1788020229 18.89° C 61% 1016.3 hPa - - - -
1788016629 20° C 48% 1016.3 hPa - - - -
1788013040 21.67° C 41% 1016.2 hPa - - - -
1788009429 22.22° C 42% 1016 hPa - - - -
1788005830 22.78° C 41% 1015.9 hPa - - - -
1788002230 23.33° C 39% 1015.6 hPa - - - -
1787998629 23.89° C 37% 1015.5 hPa - - - -
1787995028 23.33° C 37% 1015.5 hPa - - - -
1787991429 22.78° C 36% 1015.5 hPa - - - -
1787987829 22.22° C 39% 1016 hPa - - - -
1787984229 20.56° C 48% 1016.3 hPa - - - -
1787980629 18.89° C 57% 1016.3 hPa - - - -
1787977029 16.67° C 63% 1016.1 hPa - - - -

* Rain since midnight (hover to see other rain measurements)
** Current wind speed in m/s (hover to see current wind gust speed)